sensor_id;sensor_type;location;lat;lon;timestamp;pressure;altitude;pressure_sealevel;temperature;humidity
38630;BME280;24384;51.988;4.644;2023-03-19T00:02:22;101118.28;;;10.17;94.72
38630;BME280;24384;51.988;4.644;2023-03-19T00:04:47;101127.13;;;10.16;94.39
38630;BME280;24384;51.988;4.644;2023-03-19T00:07:13;101129.75;;;10.16;94.20
38630;BME280;24384;51.988;4.644;2023-03-19T00:09:39;101128.94;;;10.13;94.70
38630;BME280;24384;51.988;4.644;2023-03-19T00:12:05;101128.00;;;10.15;94.55
38630;BME280;24384;51.988;4.644;2023-03-19T00:14:30;101130.72;;;10.12;94.56
38630;BME280;24384;51.988;4.644;2023-03-19T00:16:56;101136.78;;;10.16;94.19
38630;BME280;24384;51.988;4.644;2023-03-19T00:19:21;101135.91;;;10.15;94.55
38630;BME280;24384;51.988;4.644;2023-03-19T00:21:46;101146.63;;;10.09;94.80
38630;BME280;24384;51.988;4.644;2023-03-19T00:24:12;101156.41;;;10.06;94.54
38630;BME280;24384;51.988;4.644;2023-03-19T00:26:37;101152.91;;;10.03;94.74
38630;BME280;24384;51.988;4.644;2023-03-19T00:29:02;101148.56;;;10.02;94.94
38630;BME280;24384;51.988;4.644;2023-03-19T00:31:28;101147.78;;;9.97;95.19
38630;BME280;24384;51.988;4.644;2023-03-19T00:33:57;101143.34;;;10.01;94.37
38630;BME280;24384;51.988;4.644;2023-03-19T00:36:23;101146.09;;;9.96;94.13
38630;BME280;24384;51.988;4.644;2023-03-19T00:38:49;101149.63;;;9.95;94.31
38630;BME280;24384;51.988;4.644;2023-03-19T00:41:15;101156.47;;;10.02;94.00
38630;BME280;24384;51.988;4.644;2023-03-19T00:43:42;101151.47;;;9.92;94.07
38630;BME280;24384;51.988;4.644;2023-03-19T00:46:07;101158.72;;;9.82;94.94
38630;BME280;24384;51.988;4.644;2023-03-19T00:48:33;101154.38;;;9.81;95.25
38630;BME280;24384;51.988;4.644;2023-03-19T00:51:05;101157.88;;;9.81;95.06
38630;BME280;24384;51.988;4.644;2023-03-19T00:53:32;101159.75;;;9.76;94.92
38630;BME280;24384;51.988;4.644;2023-03-19T00:55:57;101157.25;;;9.72;94.73
38630;BME280;24384;51.988;4.644;2023-03-19T00:58:22;101159.97;;;9.67;95.37
38630;BME280;24384;51.988;4.644;2023-03-19T01:00:50;101163.50;;;9.66;94.67
38630;BME280;24384;51.988;4.644;2023-03-19T01:03:16;101154.81;;;9.62;94.73
38630;BME280;24384;51.988;4.644;2023-03-19T01:05:41;101157.53;;;9.59;94.81
38630;BME280;24384;51.988;4.644;2023-03-19T01:08:06;101159.31;;;9.57;95.37
38630;BME280;24384;51.988;4.644;2023-03-19T01:10:33;101159.16;;;9.63;94.94
38630;BME280;24384;51.988;4.644;2023-03-19T01:12:59;101167.19;;;9.59;95.76
38630;BME280;24384;51.988;4.644;2023-03-19T01:15:24;101161.72;;;9.66;94.98
38630;BME280;24384;51.988;4.644;2023-03-19T01:17:49;101164.47;;;9.62;94.93
38630;BME280;24384;51.988;4.644;2023-03-19T01:20:14;101156.66;;;9.59;95.19
38630;BME280;24384;51.988;4.644;2023-03-19T01:22:43;101167.16;;;9.60;95.39
38630;BME280;24384;51.988;4.644;2023-03-19T01:25:09;101161.84;;;9.62;95.42
38630;BME280;24384;51.988;4.644;2023-03-19T01:27:36;101160.03;;;9.65;94.90
38630;BME280;24384;51.988;4.644;2023-03-19T01:30:01;101167.22;;;9.57;95.80
38630;BME280;24384;51.988;4.644;2023-03-19T01:32:27;101155.56;;;9.67;95.11
38630;BME280;24384;51.988;4.644;2023-03-19T01:34:52;101165.38;;;9.62;94.66
38630;BME280;24384;51.988;4.644;2023-03-19T01:37:17;101160.97;;;9.61;94.38
38630;BME280;24384;51.988;4.644;2023-03-19T01:39:43;101169.06;;;9.54;94.48
38630;BME280;24384;51.988;4.644;2023-03-19T01:42:09;101161.25;;;9.50;94.06
38630;BME280;24384;51.988;4.644;2023-03-19T01:44:35;101166.63;;;9.46;93.28
38630;BME280;24384;51.988;4.644;2023-03-19T01:47:01;101168.66;;;9.33;93.23
38630;BME280;24384;51.988;4.644;2023-03-19T01:49:28;101170.31;;;9.37;92.03
38630;BME280;24384;51.988;4.644;2023-03-19T01:51:54;101169.75;;;9.23;92.92
38630;BME280;24384;51.988;4.644;2023-03-19T01:54:21;101170.69;;;9.20;93.33
38630;BME280;24384;51.988;4.644;2023-03-19T01:56:49;101174.41;;;9.11;93.00
38630;BME280;24384;51.988;4.644;2023-03-19T01:59:18;101180.31;;;9.21;93.15
38630;BME280;24384;51.988;4.644;2023-03-19T02:01:56;101175.16;;;9.17;92.25
38630;BME280;24384;51.988;4.644;2023-03-19T02:04:22;101172.69;;;9.09;93.02
38630;BME280;24384;51.988;4.644;2023-03-19T02:06:48;101162.94;;;9.14;92.66
38630;BME280;24384;51.988;4.644;2023-03-19T02:09:14;101161.22;;;9.13;92.44
38630;BME280;24384;51.988;4.644;2023-03-19T02:11:42;101168.50;;;9.00;93.20
38630;BME280;24384;51.988;4.644;2023-03-19T02:14:08;101173.03;;;8.93;92.48
38630;BME280;24384;51.988;4.644;2023-03-19T02:16:33;101175.56;;;8.98;93.18
38630;BME280;24384;51.988;4.644;2023-03-19T02:18:59;101181.81;;;8.92;92.85
38630;BME280;24384;51.988;4.644;2023-03-19T02:21:25;101180.94;;;8.92;93.23
38630;BME280;24384;51.988;4.644;2023-03-19T02:23:54;101178.22;;;8.96;93.01
38630;BME280;24384;51.988;4.644;2023-03-19T02:26:25;101176.44;;;8.97;93.28
38630;BME280;24384;51.988;4.644;2023-03-19T02:28:52;101178.22;;;8.96;93.23
38630;BME280;24384;51.988;4.644;2023-03-19T02:31:18;101179.25;;;8.89;93.70
38630;BME280;24384;51.988;4.644;2023-03-19T02:34:06;101181.84;;;8.91;93.99
38630;BME280;24384;51.988;4.644;2023-03-19T02:36:33;101177.56;;;8.87;94.16
38630;BME280;24384;51.988;4.644;2023-03-19T02:39:02;101186.16;;;8.95;93.80
38630;BME280;24384;51.988;4.644;2023-03-19T02:41:28;101182.78;;;8.88;94.33
38630;BME280;24384;51.988;4.644;2023-03-19T02:43:55;101183.56;;;8.93;94.25
38630;BME280;24384;51.988;4.644;2023-03-19T02:46:22;101183.56;;;8.93;94.26
38630;BME280;24384;51.988;4.644;2023-03-19T02:48:47;101187.13;;;8.89;95.01
38630;BME280;24384;51.988;4.644;2023-03-19T02:51:13;101183.56;;;8.93;95.49
38630;BME280;24384;51.988;4.644;2023-03-19T02:53:38;101185.34;;;8.91;95.00
38630;BME280;24384;51.988;4.644;2023-03-19T02:56:03;101187.88;;;8.96;94.84
38630;BME280;24384;51.988;4.644;2023-03-19T02:58:29;101187.19;;;8.86;95.19
38630;BME280;24384;51.988;4.644;2023-03-19T03:00:54;101189.19;;;8.75;94.64
38630;BME280;24384;51.988;4.644;2023-03-19T03:03:19;101191.81;;;8.75;94.49
38630;BME280;24384;51.988;4.644;2023-03-19T03:05:45;101190.06;;;8.74;94.44
38630;BME280;24384;51.988;4.644;2023-03-19T03:08:10;101187.44;;;8.74;94.52
38630;BME280;24384;51.988;4.644;2023-03-19T03:10:36;101179.56;;;8.74;94.49
38630;BME280;24384;51.988;4.644;2023-03-19T03:13:02;101184.09;;;8.66;94.58
38630;BME280;24384;51.988;4.644;2023-03-19T03:15:28;101183.28;;;8.64;94.89
38630;BME280;24384;51.988;4.644;2023-03-19T03:17:53;101175.50;;;8.57;94.16
38630;BME280;24384;51.988;4.644;2023-03-19T03:20:20;101180.81;;;8.56;93.91
38630;BME280;24384;51.988;4.644;2023-03-19T03:22:46;101179.94;;;8.54;93.28
38630;BME280;24384;51.988;4.644;2023-03-19T03:25:12;101180.91;;;8.50;93.75
38630;BME280;24384;51.988;4.644;2023-03-19T03:27:37;101184.34;;;8.53;94.39
38630;BME280;24384;51.988;4.644;2023-03-19T03:30:04;101189.41;;;8.64;93.56
38630;BME280;24384;51.988;4.644;2023-03-19T03:32:30;101190.31;;;8.62;93.75
38630;BME280;24384;51.988;4.644;2023-03-19T03:34:55;101189.41;;;8.63;94.04
38630;BME280;24384;51.988;4.644;2023-03-19T03:37:20;101180.81;;;8.54;93.44
38630;BME280;24384;51.988;4.644;2023-03-19T03:39:46;101178.22;;;8.53;94.02
38630;BME280;24384;51.988;4.644;2023-03-19T03:42:12;101186.03;;;8.57;93.47
38630;BME280;24384;51.988;4.644;2023-03-19T03:44:37;101184.13;;;8.64;94.16
38630;BME280;24384;51.988;4.644;2023-03-19T03:47:02;101185.84;;;8.67;94.32
38630;BME280;24384;51.988;4.644;2023-03-19T03:49:28;101184.09;;;8.66;94.20
38630;BME280;24384;51.988;4.644;2023-03-19T03:51:53;101179.72;;;8.65;94.53
38630;BME280;24384;51.988;4.644;2023-03-19T03:54:18;101184.34;;;8.53;93.86
38630;BME280;24384;51.988;4.644;2023-03-19T03:56:44;101179.25;;;8.44;93.83
38630;BME280;24384;51.988;4.644;2023-03-19T03:59:09;101179.31;;;8.39;94.21
38630;BME280;24384;51.988;4.644;2023-03-19T04:01:35;101183.75;;;8.37;94.47
38630;BME280;24384;51.988;4.644;2023-03-19T04:04:01;101195.09;;;8.38;94.35
38630;BME280;24384;51.988;4.644;2023-03-19T04:06:26;101190.75;;;8.35;94.60
38630;BME280;24384;51.988;4.644;2023-03-19T04:08:52;101200.31;;;8.41;94.35
38630;BME280;24384;51.988;4.644;2023-03-19T04:11:18;101197.72;;;8.38;94.71
38630;BME280;24384;51.988;4.644;2023-03-19T04:13:43;101196.97;;;8.33;94.50
38630;BME280;24384;51.988;4.644;2023-03-19T04:16:09;101195.47;;;8.18;94.46
38630;BME280;24384;51.988;4.644;2023-03-19T04:18:35;101207.91;;;8.08;94.51
38630;BME280;24384;51.988;4.644;2023-03-19T04:21:01;101202.69;;;8.06;95.25
38630;BME280;24384;51.988;4.644;2023-03-19T04:23:26;101198.34;;;8.02;94.96
38630;BME280;24384;51.988;4.644;2023-03-19T04:25:51;101202.63;;;8.10;95.06
38630;BME280;24384;51.988;4.644;2023-03-19T04:28:17;101199.28;;;7.98;95.78
38630;BME280;24384;51.988;4.644;2023-03-19T04:30:42;101202.72;;;8.03;95.95
38630;BME280;24384;51.988;4.644;2023-03-19T04:33:09;101209.56;;;8.12;95.61
38630;BME280;24384;51.988;4.644;2023-03-19T04:35:34;101205.22;;;8.11;95.90
38630;BME280;24384;51.988;4.644;2023-03-19T04:38:00;101203.19;;;8.27;95.56
38630;BME280;24384;51.988;4.644;2023-03-19T04:40:25;101210.41;;;8.16;94.91
38630;BME280;24384;51.988;4.644;2023-03-19T04:42:51;101227.78;;;8.23;95.50
38630;BME280;24384;51.988;4.644;2023-03-19T04:45:17;101216.38;;;8.24;95.22
38630;BME280;24384;51.988;4.644;2023-03-19T04:47:43;101224.22;;;8.27;95.10
38630;BME280;24384;51.988;4.644;2023-03-19T04:50:08;101220.75;;;8.25;94.95
38630;BME280;24384;51.988;4.644;2023-03-19T04:52:34;101222.34;;;8.32;94.59
38630;BME280;24384;51.988;4.644;2023-03-19T04:55:01;101225.06;;;8.28;95.17
38630;BME280;24384;51.988;4.644;2023-03-19T04:57:26;101228.50;;;8.33;95.00
38630;BME280;24384;51.988;4.644;2023-03-19T04:59:51;101229.31;;;8.36;94.89
38630;BME280;24384;51.988;4.644;2023-03-19T05:02:17;101233.53;;;8.48;94.36
38630;BME280;24384;51.988;4.644;2023-03-19T05:04:42;101234.63;;;8.33;94.57
38630;BME280;24384;51.988;4.644;2023-03-19T05:07:10;101231.19;;;8.30;94.34
38630;BME280;24384;51.988;4.644;2023-03-19T05:09:35;101236.34;;;8.34;94.66
38630;BME280;24384;51.988;4.644;2023-03-19T05:12:00;101232.72;;;8.40;94.51
38630;BME280;24384;51.988;4.644;2023-03-19T05:14:25;101244.28;;;8.33;93.85
38630;BME280;24384;51.988;4.644;2023-03-19T05:16:51;101240.63;;;8.40;94.06
38630;BME280;24384;51.988;4.644;2023-03-19T05:19:17;101242.56;;;8.29;94.39
38630;BME280;24384;51.988;4.644;2023-03-19T05:21:42;101240.97;;;8.20;95.19
38630;BME280;24384;51.988;4.644;2023-03-19T05:24:07;101244.53;;;8.17;94.81
38630;BME280;24384;51.988;4.644;2023-03-19T05:26:32;101249.88;;;8.11;95.11
38630;BME280;24384;51.988;4.644;2023-03-19T05:28:57;101262.22;;;8.04;95.50
38630;BME280;24384;51.988;4.644;2023-03-19T05:31:23;101265.00;;;7.95;96.14
38630;BME280;24384;51.988;4.644;2023-03-19T05:33:48;101269.47;;;7.90;96.84
38630;BME280;24384;51.988;4.644;2023-03-19T05:36:13;101264.28;;;7.85;96.73
38630;BME280;24384;51.988;4.644;2023-03-19T05:38:39;101273.88;;;7.88;96.86
38630;BME280;24384;51.988;4.644;2023-03-19T05:41:05;101273.00;;;7.87;97.15
38630;BME280;24384;51.988;4.644;2023-03-19T05:43:30;101277.28;;;7.93;97.31
38630;BME280;24384;51.988;4.644;2023-03-19T05:45:56;101281.56;;;8.00;96.44
38630;BME280;24384;51.988;4.644;2023-03-19T05:48:22;101278.16;;;7.94;96.40
38630;BME280;24384;51.988;4.644;2023-03-19T05:50:47;101286.09;;;7.89;97.01
38630;BME280;24384;51.988;4.644;2023-03-19T05:53:13;101288.72;;;7.89;96.74
38630;BME280;24384;51.988;4.644;2023-03-19T05:55:38;101293.13;;;7.88;96.29
38630;BME280;24384;51.988;4.644;2023-03-19T05:58:03;101294.03;;;7.84;96.79
38630;BME280;24384;51.988;4.644;2023-03-19T06:00:28;101302.00;;;7.80;97.28
38630;BME280;24384;51.988;4.644;2023-03-19T06:02:54;101309.06;;;7.76;97.48
38630;BME280;24384;51.988;4.644;2023-03-19T06:05:19;101306.47;;;7.73;97.56
38630;BME280;24384;51.988;4.644;2023-03-19T06:07:45;101304.75;;;7.69;97.58
38630;BME280;24384;51.988;4.644;2023-03-19T06:10:10;101296.00;;;7.70;97.87
38630;BME280;24384;51.988;4.644;2023-03-19T06:12:35;101295.19;;;7.68;97.50
38630;BME280;24384;51.988;4.644;2023-03-19T06:15:01;101298.66;;;7.68;98.08
38630;BME280;24384;51.988;4.644;2023-03-19T06:17:26;101297.81;;;7.66;98.32
38630;BME280;24384;51.988;4.644;2023-03-19T06:19:51;101295.94;;;7.75;97.91
38630;BME280;24384;51.988;4.644;2023-03-19T06:22:17;101299.38;;;7.78;97.88
38630;BME280;24384;51.988;4.644;2023-03-19T06:24:42;101300.25;;;7.80;98.13
38630;BME280;24384;51.988;4.644;2023-03-19T06:27:07;101309.81;;;7.84;97.92
38630;BME280;24384;51.988;4.644;2023-03-19T06:29:33;101315.91;;;7.88;97.58
38630;BME280;24384;51.988;4.644;2023-03-19T06:31:58;101320.25;;;7.87;97.94
38630;BME280;24384;51.988;4.644;2023-03-19T06:34:24;101331.03;;;7.69;98.37
38630;BME280;24384;51.988;4.644;2023-03-19T06:36:49;101329.19;;;7.77;98.06
38630;BME280;24384;51.988;4.644;2023-03-19T06:39:15;101328.38;;;7.70;98.31
38630;BME280;24384;51.988;4.644;2023-03-19T06:41:40;101341.41;;;7.77;97.74
38630;BME280;24384;51.988;4.644;2023-03-19T06:44:06;101331.81;;;7.76;97.93
38630;BME280;24384;51.988;4.644;2023-03-19T06:46:31;101330.03;;;7.78;97.83
38630;BME280;24384;51.988;4.644;2023-03-19T06:48:57;101343.09;;;7.84;97.98
38630;BME280;24384;51.988;4.644;2023-03-19T06:51:22;101340.47;;;7.84;97.88
38630;BME280;24384;51.988;4.644;2023-03-19T06:53:47;101339.59;;;7.83;98.21
38630;BME280;24384;51.988;4.644;2023-03-19T06:56:12;101342.28;;;7.80;97.67
38630;BME280;24384;51.988;4.644;2023-03-19T06:58:38;101340.38;;;7.90;98.11
38630;BME280;24384;51.988;4.644;2023-03-19T07:01:03;101339.28;;;8.05;97.50
38630;BME280;24384;51.988;4.644;2023-03-19T07:03:29;101349.75;;;8.08;97.89
38630;BME280;24384;51.988;4.644;2023-03-19T07:05:54;101358.31;;;8.22;97.60
38630;BME280;24384;51.988;4.644;2023-03-19T07:08:20;101361.78;;;8.23;96.88
38630;BME280;24384;51.988;4.644;2023-03-19T07:10:45;101364.38;;;8.26;96.68
38630;BME280;24384;51.988;4.644;2023-03-19T07:13:10;101362.50;;;8.36;97.02
38630;BME280;24384;51.988;4.644;2023-03-19T07:15:35;101373.19;;;8.23;96.80
38630;BME280;24384;51.988;4.644;2023-03-19T07:18:02;101368.78;;;8.24;96.74
38630;BME280;24384;51.988;4.644;2023-03-19T07:20:27;101369.53;;;8.32;96.60
38630;BME280;24384;51.988;4.644;2023-03-19T07:22:53;101372.00;;;8.41;96.32
38630;BME280;24384;51.988;4.644;2023-03-19T07:25:19;101370.44;;;8.31;96.65
38630;BME280;24384;51.988;4.644;2023-03-19T07:27:44;101379.16;;;8.33;96.76
38630;BME280;24384;51.988;4.644;2023-03-19T07:30:10;101377.63;;;8.18;97.08
38630;BME280;24384;51.988;4.644;2023-03-19T07:32:36;101374.75;;;8.35;96.57
38630;BME280;24384;51.988;4.644;2023-03-19T07:35:02;101368.50;;;8.42;97.26
38630;BME280;24384;51.988;4.644;2023-03-19T07:37:28;101381.63;;;8.46;96.36
38630;BME280;24384;51.988;4.644;2023-03-19T07:39:53;101379.81;;;8.49;96.67
38630;BME280;24384;51.988;4.644;2023-03-19T07:42:18;101387.44;;;8.66;97.07
38630;BME280;24384;51.988;4.644;2023-03-19T07:44:43;101389.34;;;8.56;96.06
38630;BME280;24384;51.988;4.644;2023-03-19T07:47:09;101388.25;;;8.71;95.76
38630;BME280;24384;51.988;4.644;2023-03-19T07:49:34;101398.66;;;8.77;95.91
38630;BME280;24384;51.988;4.644;2023-03-19T07:52:00;101400.44;;;8.75;95.88
38630;BME280;24384;51.988;4.644;2023-03-19T07:54:25;101396.09;;;8.73;95.92
38630;BME280;24384;51.988;4.644;2023-03-19T07:56:50;101394.50;;;8.63;96.26
38630;BME280;24384;51.988;4.644;2023-03-19T07:59:16;101392.66;;;8.68;96.02
38630;BME280;24384;51.988;4.644;2023-03-19T08:01:41;101406.72;;;8.67;96.42
38630;BME280;24384;51.988;4.644;2023-03-19T08:04:06;101405.03;;;8.63;96.18
38630;BME280;24384;51.988;4.644;2023-03-19T08:06:32;101411.25;;;8.57;95.81
38630;BME280;24384;51.988;4.644;2023-03-19T08:08:57;101414.75;;;8.59;96.03
38630;BME280;24384;51.988;4.644;2023-03-19T08:11:22;101406.88;;;8.57;95.33
38630;BME280;24384;51.988;4.644;2023-03-19T08:13:48;101418.19;;;8.63;96.10
38630;BME280;24384;51.988;4.644;2023-03-19T08:16:13;101419.00;;;8.65;95.50
38630;BME280;24384;51.988;4.644;2023-03-19T08:18:39;101425.22;;;8.62;95.82
38630;BME280;24384;51.988;4.644;2023-03-19T08:21:04;101427.88;;;8.60;96.19
38630;BME280;24384;51.988;4.644;2023-03-19T08:23:30;101433.25;;;8.51;96.05
38630;BME280;24384;51.988;4.644;2023-03-19T08:25:55;101424.50;;;8.49;95.65
38630;BME280;24384;51.988;4.644;2023-03-19T08:28:21;101435.78;;;8.57;95.52
38630;BME280;24384;51.988;4.644;2023-03-19T08:30:46;101435.78;;;8.57;96.11
38630;BME280;24384;51.988;4.644;2023-03-19T08:33:12;101436.69;;;8.55;96.91
38630;BME280;24384;51.988;4.644;2023-03-19T08:35:37;101434.84;;;8.62;96.21
38630;BME280;24384;51.988;4.644;2023-03-19T08:38:03;101440.31;;;8.48;96.57
38630;BME280;24384;51.988;4.644;2023-03-19T08:40:28;101445.59;;;8.46;96.46
38630;BME280;24384;51.988;4.644;2023-03-19T08:42:53;101452.56;;;8.49;96.97
38630;BME280;24384;51.988;4.644;2023-03-19T08:45:20;101445.59;;;8.46;96.60
38630;BME280;24384;51.988;4.644;2023-03-19T08:47:46;101455.91;;;8.58;96.59
38630;BME280;24384;51.988;4.644;2023-03-19T08:50:11;101458.50;;;8.62;96.71
38630;BME280;24384;51.988;4.644;2023-03-19T08:52:37;101461.88;;;8.71;96.27
38630;BME280;24384;51.988;4.644;2023-03-19T08:55:02;101459.25;;;8.71;96.02
38630;BME280;24384;51.988;4.644;2023-03-19T08:57:31;101461.78;;;8.77;96.00
38630;BME280;24384;51.988;4.644;2023-03-19T08:59:56;101464.47;;;8.74;95.60
38630;BME280;24384;51.988;4.644;2023-03-19T09:02:24;101469.66;;;8.79;95.13
38630;BME280;24384;51.988;4.644;2023-03-19T09:04:52;101467.91;;;8.78;94.83
38630;BME280;24384;51.988;4.644;2023-03-19T09:07:18;101466.94;;;8.84;94.47
38630;BME280;24384;51.988;4.644;2023-03-19T09:09:43;101466.66;;;9.02;93.24
38630;BME280;24384;51.988;4.644;2023-03-19T09:12:13;101473.91;;;8.86;93.58
38630;BME280;24384;51.988;4.644;2023-03-19T09:14:39;101471.41;;;8.77;94.23
38630;BME280;24384;51.988;4.644;2023-03-19T09:17:07;101474.78;;;8.88;94.43
38630;BME280;24384;51.988;4.644;2023-03-19T09:19:33;101485.94;;;9.01;93.23
38630;BME280;24384;51.988;4.644;2023-03-19T09:21:58;101479.88;;;8.98;93.72
38630;BME280;24384;51.988;4.644;2023-03-19T09:24:23;101480.72;;;9.00;93.29
38630;BME280;24384;51.988;4.644;2023-03-19T09:26:52;101479.84;;;8.99;93.17
38630;BME280;24384;51.988;4.644;2023-03-19T09:29:17;101475.22;;;9.13;92.34
38630;BME280;24384;51.988;4.644;2023-03-19T09:31:43;101480.34;;;9.21;91.21
38630;BME280;24384;51.988;4.644;2023-03-19T09:34:08;101481.97;;;9.30;92.06
38630;BME280;24384;51.988;4.644;2023-03-19T09:36:41;101488.63;;;9.49;91.60
38630;BME280;24384;51.988;4.644;2023-03-19T09:39:09;101484.22;;;9.52;91.69
38630;BME280;24384;51.988;4.644;2023-03-19T09:41:46;101489.00;;;9.78;91.07
38630;BME280;24384;51.988;4.644;2023-03-19T09:44:37;101491.56;;;9.81;90.32
38630;BME280;24384;51.988;4.644;2023-03-19T09:50:02;101509.66;;;9.51;89.66
38630;BME280;24384;51.988;4.644;2023-03-19T09:52:33;101510.47;;;9.56;90.44
38630;BME280;24384;51.988;4.644;2023-03-19T09:55:04;101520.09;;;9.57;90.35
38630;BME280;24384;51.988;4.644;2023-03-19T09:57:35;101515.78;;;9.53;91.07
38630;BME280;24384;51.988;4.644;2023-03-19T10:00:17;101531.53;;;9.56;91.29
38630;BME280;24384;51.988;4.644;2023-03-19T10:02:44;101528.88;;;9.58;90.80
38630;BME280;24384;51.988;4.644;2023-03-19T10:16:10;101541.44;;;9.40;91.20
38630;BME280;24384;51.988;4.644;2023-03-19T10:18:38;101539.75;;;9.38;91.71
38630;BME280;24384;51.988;4.644;2023-03-19T10:23:38;101540.38;;;9.52;91.11
38630;BME280;24384;51.988;4.644;2023-03-19T10:26:14;101547.56;;;9.44;91.81
38630;BME280;24384;51.988;4.644;2023-03-19T10:28:41;101547.50;;;9.47;91.41
38630;BME280;24384;51.988;4.644;2023-03-19T10:31:18;101549.91;;;9.59;90.77
38630;BME280;24384;51.988;4.644;2023-03-19T10:33:57;101554.16;;;9.66;91.00
38630;BME280;24384;51.988;4.644;2023-03-19T10:36:30;101548.19;;;9.57;91.30
38630;BME280;24384;51.988;4.644;2023-03-19T10:38:57;101558.59;;;9.64;91.49
38630;BME280;24384;51.988;4.644;2023-03-19T10:43:59;101562.22;;;9.57;90.77
38630;BME280;24384;51.988;4.644;2023-03-19T10:46:25;101569.13;;;9.64;90.46
38630;BME280;24384;51.988;4.644;2023-03-19T10:48:50;101567.38;;;9.63;90.88
38630;BME280;24384;51.988;4.644;2023-03-19T10:51:17;101563.03;;;9.62;90.65
38630;BME280;24384;51.988;4.644;2023-03-19T10:53:46;101569.31;;;9.54;91.24
38630;BME280;24384;51.988;4.644;2023-03-19T10:56:28;101562.03;;;9.68;90.74
38630;BME280;24384;51.988;4.644;2023-03-19T10:59:04;101568.97;;;9.74;90.27
38630;BME280;24384;51.988;4.644;2023-03-19T11:01:33;101571.53;;;9.77;90.99
38630;BME280;24384;51.988;4.644;2023-03-19T11:04:01;101577.13;;;9.58;91.03
38630;BME280;24384;51.988;4.644;2023-03-19T11:06:34;101579.53;;;9.72;90.84
38630;BME280;24384;51.988;4.644;2023-03-19T11:11:48;101571.84;;;9.60;91.73
38630;BME280;24384;51.988;4.644;2023-03-19T11:17:21;101573.38;;;9.73;91.69
38630;BME280;24384;51.988;4.644;2023-03-19T11:19:52;101573.00;;;9.93;91.58
38630;BME280;24384;51.988;4.644;2023-03-19T11:25:40;101581.56;;;10.04;90.61
38630;BME280;24384;51.988;4.644;2023-03-19T11:28:31;101574.66;;;9.97;90.68
38630;BME280;24384;51.988;4.644;2023-03-19T11:31:25;101576.91;;;10.17;90.33
38630;BME280;24384;51.988;4.644;2023-03-19T11:39:26;101573.44;;;10.17;89.65
38630;BME280;24384;51.988;4.644;2023-03-19T11:44:28;101574.22;;;10.20;88.48
38630;BME280;24384;51.988;4.644;2023-03-19T11:54:54;101575.56;;;10.84;87.58
38630;BME280;24384;51.988;4.644;2023-03-19T12:05:20;101575.53;;;12.58;83.92
38630;BME280;24384;51.988;4.644;2023-03-19T12:13:11;101592.78;;;12.08;79.87
38630;BME280;24384;51.988;4.644;2023-03-19T12:20:46;101592.34;;;11.56;81.55
38630;BME280;24384;51.988;4.644;2023-03-19T12:28:19;101581.00;;;11.53;83.98
38630;BME280;24384;51.988;4.644;2023-03-19T12:36:06;101571.84;;;13.99;71.90
38630;BME280;24384;51.988;4.644;2023-03-19T12:38:37;101573.59;;;14.94;69.21
38630;BME280;24384;51.988;4.644;2023-03-19T12:41:04;101566.22;;;16.46;65.61
38630;BME280;24384;51.988;4.644;2023-03-19T12:51:34;101573.16;;;17.08;58.77
38630;BME280;24384;51.988;4.644;2023-03-19T12:54:12;101577.06;;;16.62;59.96
38630;BME280;24384;51.988;4.644;2023-03-19T13:01:43;101590.66;;;15.33;64.13
38630;BME280;24384;51.988;4.644;2023-03-19T13:04:26;101588.47;;;14.76;65.71
38630;BME280;24384;51.988;4.644;2023-03-19T13:07:00;101601.06;;;14.22;67.97
38630;BME280;24384;51.988;4.644;2023-03-19T13:12:17;101602.41;;;13.84;70.34
38630;BME280;24384;51.988;4.644;2023-03-19T13:19:56;101611.44;;;13.51;72.44
38630;BME280;24384;51.988;4.644;2023-03-19T13:22:31;101611.06;;;13.37;71.93
38630;BME280;24384;51.988;4.644;2023-03-19T13:24:58;101616.19;;;13.13;72.38
38630;BME280;24384;51.988;4.644;2023-03-19T13:27:34;101611.78;;;12.84;72.14
38630;BME280;24384;51.988;4.644;2023-03-19T13:32:33;101602.38;;;12.74;73.55
38630;BME280;24384;51.988;4.644;2023-03-19T13:35:12;101598.84;;;12.75;73.19
38630;BME280;24384;51.988;4.644;2023-03-19T13:37:41;101600.97;;;12.62;73.98
38630;BME280;24384;51.988;4.644;2023-03-19T13:42:55;101615.16;;;12.28;74.82
38630;BME280;24384;51.988;4.644;2023-03-19T13:47:50;101620.69;;;11.84;76.30
38630;BME280;24384;51.988;4.644;2023-03-19T13:50:28;101623.78;;;11.67;75.97
38630;BME280;24384;51.988;4.644;2023-03-19T13:53:40;101614.13;;;11.64;76.06
38630;BME280;24384;51.988;4.644;2023-03-19T13:58:17;101621.06;;;11.70;76.96
38630;BME280;24384;51.988;4.644;2023-03-19T14:01:04;101625.44;;;11.71;75.93
38630;BME280;24384;51.988;4.644;2023-03-19T14:03:31;101624.81;;;11.60;75.39
38630;BME280;24384;51.988;4.644;2023-03-19T14:05:57;101633.50;;;11.67;75.99
38630;BME280;24384;51.988;4.644;2023-03-19T14:08:28;101635.19;;;11.68;77.23
38630;BME280;24384;51.988;4.644;2023-03-19T14:10:55;101638.63;;;11.73;76.50
38630;BME280;24384;51.988;4.644;2023-03-19T14:13:26;101633.38;;;11.71;77.13
38630;BME280;24384;51.988;4.644;2023-03-19T14:15:53;101640.44;;;11.69;76.60
38630;BME280;24384;51.988;4.644;2023-03-19T14:18:25;101639.75;;;11.62;78.14
38630;BME280;24384;51.988;4.644;2023-03-19T14:21:00;101642.66;;;11.52;78.26
38630;BME280;24384;51.988;4.644;2023-03-19T14:23:28;101653.13;;;11.55;78.60
38630;BME280;24384;51.988;4.644;2023-03-19T14:28:25;101653.28;;;11.49;79.37
38630;BME280;24384;51.988;4.644;2023-03-19T14:30:53;101654.63;;;11.29;80.42
38630;BME280;24384;51.988;4.644;2023-03-19T14:36:23;101649.47;;;11.23;81.64
38630;BME280;24384;51.988;4.644;2023-03-19T14:41:34;101635.44;;;11.21;81.95
38630;BME280;24384;51.988;4.644;2023-03-19T14:46:48;101650.03;;;10.98;82.26
38630;BME280;24384;51.988;4.644;2023-03-19T14:52:02;101663.97;;;10.61;83.50
38630;BME280;24384;51.988;4.644;2023-03-19T14:55:05;101662.38;;;10.54;83.73
38630;BME280;24384;51.988;4.644;2023-03-19T14:57:24;101667.06;;;10.39;84.27